IBE7SB EGLL-LEMD
Flight info
| Callsign | IBE7SB |
|---|---|
| Flight time | N/A |
| Altitude | 33000 |
| Route | GOGSI N621 SAM M195 MARUK/N0451F330 N621 LELNA DCT ERCOZ DCT NOVAN DCT DELOG N864 VADOX DCT SNR N864 NONTU NONTU4C/32R |
| Aircraft | A320/M-SDE3FGHIRWY/LB1 |
Departure
| Time | N/A |
|---|---|
| Airport | London Heathrow Airport (EGLL) |
Arrival
| Time | 2026-05-03 21:11 |
|---|---|
| Airport | Adolfo Suárez Madrid–Barajas Airport (LEMD) |
| Time | Latitude | Longitude | Altitude | Speed | Heading |
|---|---|---|---|---|---|
| 2026-05-03 21:07 | 40.36172 | -3.42299 | 4656 ft | 213 kts | 317° |
| 2026-05-03 21:07 | 40.37343 | -3.43482 | 4392 ft | 209 kts | 317° |
| 2026-05-03 21:07 | 40.38469 | -3.44618 | 4114 ft | 200 kts | 317° |
| 2026-05-03 21:07 | 40.39554 | -3.45715 | 3841 ft | 194 kts | 318° |
| 2026-05-03 21:08 | 40.40603 | -3.46775 | 3591 ft | 184 kts | 318° |
| 2026-05-03 21:08 | 40.41585 | -3.47767 | 3357 ft | 173 kts | 317° |
| 2026-05-03 21:08 | 40.42506 | -3.48700 | 3161 ft | 162 kts | 318° |
| 2026-05-03 21:08 | 40.43375 | -3.49580 | 2939 ft | 155 kts | 320° |
| 2026-05-03 21:09 | 40.44204 | -3.50420 | 2743 ft | 146 kts | 320° |
| 2026-05-03 21:09 | 40.44998 | -3.51226 | 2519 ft | 143 kts | 320° |
| 2026-05-03 21:09 | 40.45786 | -3.52023 | 2330 ft | 143 kts | 320° |
| 2026-05-03 21:09 | 40.46564 | -3.52809 | 2148 ft | 142 kts | 318° |
| 2026-05-03 21:10 | 40.47351 | -3.53616 | 2012 ft | 141 kts | 320° |
| 2026-05-03 21:10 | 40.48053 | -3.54331 | 1981 ft | 108 kts | 322° |
| 2026-05-03 21:10 | 40.48518 | -3.54799 | 1980 ft | 64 kts | 322° |
| 2026-05-03 21:10 | 40.48830 | -3.55115 | 1982 ft | 52 kts | 321° |
| 2026-05-03 21:11 | 40.49061 | -3.55348 | 1983 ft | 32 kts | 322° |
| 2026-05-03 21:11 | 40.49195 | -3.55549 | 1982 ft | 26 kts | 298° |
| 2026-05-03 21:11 | 40.49245 | -3.55704 | 1982 ft | 17 kts | 291° |
| 2026-05-03 21:11 | 40.49290 | -3.55852 | 1981 ft | 18 kts | 292° |
| 2026-05-03 21:12 | 40.49301 | -3.56021 | 1980 ft | 20 kts | 269° |
| 2026-05-03 21:12 | 40.49240 | -3.56146 | 1980 ft | 18 kts | 179° |
| 2026-05-03 21:12 | 40.49107 | -3.56143 | 1982 ft | 20 kts | 180° |
| 2026-05-03 21:12 | 40.48961 | -3.56144 | 1980 ft | 22 kts | 180° |
| 2026-05-03 21:13 | 40.48805 | -3.56151 | 1983 ft | 22 kts | 196° |
| 2026-05-03 21:13 | 40.48769 | -3.56313 | 1980 ft | 20 kts | 269° |
| 2026-05-03 21:13 | 40.48768 | -3.56507 | 1980 ft | 22 kts | 269° |
| 2026-05-03 21:13 | 40.48766 | -3.56716 | 1980 ft | 24 kts | 270° |
| 2026-05-03 21:14 | 40.48766 | -3.56938 | 1980 ft | 25 kts | 269° |
| 2026-05-03 21:14 | 40.48764 | -3.57172 | 1980 ft | 26 kts | 270° |
| 2026-05-03 21:14 | 40.48764 | -3.57416 | 1980 ft | 27 kts | 269° |
| 2026-05-03 21:14 | 40.48764 | -3.57668 | 1980 ft | 28 kts | 270° |
| 2026-05-03 21:15 | 40.48764 | -3.57825 | 1980 ft | 14 kts | 270° |
| 2026-05-03 21:15 | 40.48725 | -3.57934 | 1980 ft | 15 kts | 194° |
| 2026-05-03 21:15 | 40.48616 | -3.57952 | 1981 ft | 16 kts | 218° |
| 2026-05-03 21:15 | 40.48599 | -3.58103 | 1980 ft | 18 kts | 270° |
| 2026-05-03 21:16 | 40.48597 | -3.58278 | 1980 ft | 20 kts | 269° |
| 2026-05-03 21:16 | 40.48598 | -3.58460 | 1982 ft | 18 kts | 270° |
| 2026-05-03 21:16 | 40.48597 | -3.58637 | 1981 ft | 20 kts | 269° |
| 2026-05-03 21:16 | 40.48603 | -3.58788 | 1980 ft | 13 kts | 290° |
| 2026-05-03 21:17 | 40.48598 | -3.58900 | 1980 ft | 10 kts | 258° |
| 2026-05-03 21:17 | 40.48590 | -3.58956 | 1981 ft | 2 kts | 281° |
| 2026-05-03 21:17 | 40.48599 | -3.58972 | 1982 ft | 0 kts | 310° |